Dongola, IL (62926)

12:50 AM CST on November 24, 2014 (GMT -0600)
Hidden River Farms | Change Station
CLOSE
Current Station
Personal Weather Station
Location: Buncombe, IL
Elevation: 466 ft
Nearby Weather Stations
Active Advisory: Wind Advisory

Elev 466 ft 37.47 °N, 89.11 °W | Updated 12 seconds ago

Overcast
Overcast
60.1 °F
Feels Like 60.1 °F
N
16.1
Wind Variable Wind from SW
Gusts 18.0 mph

Today
High -- | Low -- °F
--% Chance of Precip.
Yesterday
High -- | Low -- °F
Precip. -- in
6:45 AM 4:41 PM
Waxing Crescent, 4% visible
Pressure 29.31 in
Visibility 10.0 miles
Clouds Mostly Cloudy 1500 ft
Overcast 3100 ft
Dew Point 58 °F
Humidity 93%
Rainfall 0.14 in
Snow Depth Not available.
UV 0 out of 12
Pollen .40 out of 12
Air Quality Not available.
Flu Activity Not available.
METAR KCIR 240635Z AUTO 20016G27KT 10SM BKN015 OVC031 17/15 A2931 RMK AO2 LTG DSNT NW T01700149

More Conditions Fewer Conditions

Pressure 29.31 in
Visibility 10.0 miles
Clouds Mostly Cloudy 1500 ft
Overcast 3100 ft
Dew Point 58 °F
Humidity 93%
Rainfall 0.14 in
Snow Depth Not available.
UV 0 out of 12
Pollen .40 out of 12
Air Quality Not available.
Flu Activity Not available.
METAR KCIR 240635Z AUTO 20016G27KT 10SM BKN015 OVC031 17/15 A2931 RMK AO2 LTG DSNT NW T01700149

More Conditions Fewer Conditions

10-Day Weather Forecast

Almanac

Astronomy

Nov. 24, 2014 Rise Set
Actual Time
Civil Twilight
Nautical Twilight
Astronomical Twilight
Moon
Length of Visible Light
Length of Day
Tomorrow will be .
, % of the Moon is Illuminated

Today's Extremes

State Highs State Lows

Community

WunderPhotos

Upload Photos

1,773,294 photos uploaded!

WunderBlogs® & News

Nearby

Air Quality

  Air Quality AQ Index Pollutant
Not available.

Snow Depth

Station Depth Elevation

Earthquake Activity

City Distance Mag. Time & Date
Minimum magnitude displayed is 2.5.

Coastal Water Temperatures

Place Temperature

Nearby Weather Stations